createdAt,value
2019-04-10T00:00:45.980Z,55.23
2019-04-10T00:03:25.712Z,53.70
2019-04-10T00:05:44.619Z,55.23
2019-04-10T00:08:13.038Z,56.00
2019-04-10T00:10:41.460Z,55.87
2019-04-10T00:13:10.093Z,53.50
2019-04-10T00:15:38.501Z,55.80
2019-04-10T00:18:07.404Z,54.83
2019-04-10T00:20:36.509Z,55.97
2019-04-10T00:23:05.056Z,55.37
2019-04-10T00:25:33.578Z,55.77
2019-04-10T00:28:03.188Z,56.67
2019-04-10T00:30:31.674Z,54.80
2019-04-10T00:33:00.568Z,54.83
2019-04-10T00:35:29.708Z,54.90
2019-04-10T00:37:58.280Z,56.97
2019-04-10T00:40:27.669Z,57.63
2019-04-10T00:42:57.222Z,55.70
2019-04-10T00:45:27.157Z,54.67
2019-04-10T00:47:55.665Z,53.90
2019-04-10T00:50:24.148Z,54.90
2019-04-10T00:52:52.893Z,54.97
2019-04-10T00:55:21.780Z,54.13
2019-04-10T00:57:50.471Z,53.33
2019-04-10T01:00:19.337Z,57.00
2019-04-10T01:02:47.729Z,56.50
2019-04-10T01:05:17.350Z,56.77
2019-04-10T01:07:46.998Z,54.47
2019-04-10T01:10:16.243Z,55.30
2019-04-10T01:12:44.632Z,55.73
2019-04-10T01:15:14.149Z,55.27
2019-04-10T01:17:42.674Z,56.60
2019-04-10T01:20:11.481Z,55.17
2019-04-10T01:22:39.847Z,56.43
2019-04-10T01:25:08.497Z,56.03
2019-04-10T01:27:36.896Z,54.60
2019-04-10T01:30:07.266Z,55.90
2019-04-10T01:32:36.820Z,53.97
2019-04-10T01:35:07.760Z,53.80
2019-04-10T01:37:48.779Z,55.13
2019-04-10T01:40:07.839Z,55.83
2019-04-10T01:42:36.851Z,55.60
2019-04-10T01:45:07.211Z,56.37
2019-04-10T01:47:35.563Z,56.10
2019-04-10T01:50:04.540Z,55.60
2019-04-10T01:52:33.280Z,55.50
2019-04-10T01:55:03.306Z,54.47
2019-04-10T01:57:32.470Z,52.27
2019-04-10T02:00:01.067Z,53.97
2019-04-10T02:02:31.634Z,55.43
2019-04-10T02:05:00.671Z,53.73
2019-04-10T02:07:29.937Z,55.53
2019-04-10T02:09:59.449Z,54.23
2019-04-10T02:12:28.448Z,55.27
2019-04-10T02:14:56.933Z,52.83
2019-04-10T02:17:25.437Z,54.87
2019-04-10T02:19:54.558Z,53.43
2019-04-10T02:22:23.197Z,53.27
2019-04-10T02:24:51.601Z,53.83
2019-04-10T02:27:20.460Z,55.30
2019-04-10T02:29:48.898Z,53.40
2019-04-10T02:32:18.913Z,55.33
2019-04-10T02:34:48.944Z,55.20
2019-04-10T02:37:19.229Z,54.17
2019-04-10T02:39:52.235Z,55.07
2019-04-10T02:42:18.694Z,55.77
2019-04-10T02:44:48.283Z,53.83
2019-04-10T02:47:19.064Z,54.30
2019-04-10T02:49:49.049Z,52.83
2019-04-10T02:52:17.740Z,53.73
2019-04-10T02:54:46.185Z,53.40
2019-04-10T02:57:14.555Z,53.03
2019-04-10T02:59:43.231Z,54.40
2019-04-10T03:02:11.765Z,52.87
2019-04-10T03:04:40.604Z,54.13
2019-04-10T03:07:09.578Z,56.77
2019-04-10T03:09:52.867Z,51.30
2019-04-10T03:12:09.910Z,53.87
2019-04-10T03:14:39.227Z,54.23
2019-04-10T03:17:08.547Z,54.50
2019-04-10T03:19:37.917Z,53.13
2019-04-10T03:22:07.895Z,52.87
2019-04-10T03:24:38.047Z,55.00
2019-04-10T03:28:35.535Z,55.33
2019-04-10T03:31:07.180Z,52.90
2019-04-10T03:33:39.499Z,53.60
2019-04-10T03:36:07.297Z,53.90
2019-04-10T03:38:49.950Z,53.27
2019-04-10T03:41:06.114Z,52.60
2019-04-10T03:43:34.548Z,51.63
2019-04-10T03:46:03.337Z,54.25
2019-04-10T03:48:31.789Z,55.17
2019-04-10T03:51:00.532Z,52.53
2019-04-10T03:53:29.926Z,52.63
2019-04-10T03:55:59.176Z,52.03
2019-04-10T03:58:27.616Z,51.43
2019-04-10T04:00:56.154Z,50.43
2019-04-10T04:03:24.670Z,50.53
2019-04-10T04:05:53.246Z,49.40
2019-04-10T04:08:21.672Z,50.50
2019-04-10T04:10:51.128Z,48.43
2019-04-10T04:13:19.622Z,49.67
2019-04-10T04:15:48.428Z,48.50
2019-04-10T04:18:17.246Z,48.07
2019-04-10T04:20:45.676Z,46.27
2019-04-10T04:23:14.108Z,48.40
2019-04-10T04:25:42.788Z,47.97
2019-04-10T04:28:11.372Z,49.77
2019-04-10T04:30:40.491Z,46.83
2019-04-10T04:33:08.937Z,48.03
2019-04-10T04:35:37.437Z,46.87
2019-04-10T04:38:05.896Z,47.47
2019-04-10T04:40:35.666Z,47.60
2019-04-10T04:43:04.115Z,46.40
2019-04-10T04:45:33.442Z,47.90
2019-04-10T04:48:01.946Z,46.53
2019-04-10T04:50:31.272Z,49.63
2019-04-10T04:53:00.403Z,45.73
2019-04-10T04:55:29.027Z,47.10
2019-04-10T04:57:57.622Z,45.47
2019-04-10T05:00:26.034Z,43.43
2019-04-10T05:02:54.439Z,43.30
2019-04-10T05:05:23.054Z,41.93
2019-04-10T05:07:59.413Z,41.27
2019-04-10T05:10:22.807Z,40.17
2019-04-10T05:12:51.522Z,41.30
2019-04-10T05:15:20.608Z,40.63
2019-04-10T05:17:49.321Z,40.43
2019-04-10T05:20:18.919Z,40.60
2019-04-10T05:22:47.448Z,36.70
2019-04-10T05:25:16.806Z,41.60
2019-04-10T05:27:45.623Z,39.80
2019-04-10T05:30:14.273Z,35.27
2019-04-10T05:32:43.723Z,39.10
2019-04-10T05:35:12.613Z,38.03
2019-04-10T05:37:41.242Z,37.37
2019-04-10T05:40:10.083Z,37.90
2019-04-10T05:42:39.509Z,37.63
2019-04-10T05:45:09.186Z,36.13
2019-04-10T05:47:38.694Z,36.60
2019-04-10T05:50:08.302Z,37.40
2019-04-10T05:52:37.452Z,37.23
2019-04-10T05:55:06.533Z,37.07
2019-04-10T05:57:34.989Z,36.30
2019-04-10T06:00:05.527Z,36.97
2019-04-10T06:02:34.217Z,37.97
2019-04-10T06:05:02.597Z,48.83
2019-04-10T06:07:31.012Z,39.23
2019-04-10T06:10:04.348Z,35.77
2019-04-10T06:12:30.576Z,36.00
2019-04-10T06:14:59.087Z,35.67
2019-04-10T06:17:27.509Z,34.33
2019-04-10T06:19:56.690Z,35.03
2019-04-10T06:22:26.306Z,39.00
2019-04-10T06:24:54.792Z,35.83
2019-04-10T06:27:24.184Z,34.30
2019-04-10T06:29:53.162Z,37.23
2019-04-10T06:32:21.660Z,36.10
2019-04-10T06:34:50.259Z,34.40
2019-04-10T06:37:18.965Z,32.73
2019-04-10T06:39:47.593Z,31.70
2019-04-10T06:42:16.390Z,31.40
2019-04-10T06:44:45.971Z,33.43
2019-04-10T06:47:14.519Z,30.73
2019-04-10T06:49:42.921Z,30.17
2019-04-10T06:52:11.326Z,29.73
2019-04-10T06:54:40.649Z,30.90
2019-04-10T06:57:10.377Z,30.40
2019-04-10T06:59:39.887Z,30.30
2019-04-10T07:02:18.509Z,30.60
2019-04-10T07:04:46.044Z,29.43
2019-04-10T07:07:12.445Z,29.17
2019-04-10T07:09:39.938Z,27.77
2019-04-10T07:12:08.552Z,28.17
2019-04-10T07:14:38.450Z,27.53
2019-04-10T07:17:08.863Z,27.47
2019-04-10T07:19:37.466Z,27.50
2019-04-10T07:22:11.994Z,36.33
2019-04-10T07:24:39.565Z,29.30
2019-04-10T07:27:07.717Z,27.60
2019-04-10T07:29:36.379Z,27.10
2019-04-10T07:32:08.016Z,28.07
2019-04-10T07:34:35.995Z,27.23
2019-04-10T07:37:05.748Z,30.40
2019-04-10T07:39:35.117Z,25.37
2019-04-10T07:42:04.159Z,26.20
2019-04-10T07:44:32.599Z,25.60
2019-04-10T07:47:01.015Z,25.13
2019-04-10T07:49:31.246Z,24.90
2019-04-10T07:52:00.927Z,23.13
2019-04-10T07:54:30.809Z,23.97
2019-04-10T07:56:59.947Z,23.77
2019-04-10T07:59:29.222Z,23.30
2019-04-10T08:01:58.112Z,23.30
2019-04-10T08:04:26.875Z,23.73
2019-04-10T08:06:55.624Z,23.77
2019-04-10T08:09:24.372Z,22.67
2019-04-10T08:11:52.858Z,21.93
2019-04-10T08:14:21.748Z,22.70
2019-04-10T08:16:50.215Z,23.63
2019-04-10T08:19:18.890Z,22.53
2019-04-10T08:21:47.310Z,22.17
2019-04-10T08:24:15.871Z,22.13
2019-04-10T08:26:45.115Z,23.63
2019-04-10T08:29:14.233Z,22.40
2019-04-10T08:31:42.715Z,21.57
2019-04-10T08:34:11.117Z,23.00
2019-04-10T08:36:39.586Z,24.90
2019-04-10T08:39:08.404Z,24.50
2019-04-10T08:41:37.276Z,22.17
2019-04-10T08:44:06.488Z,22.37
2019-04-10T08:46:35.772Z,20.90
2019-04-10T08:49:04.326Z,21.37
2019-04-10T08:51:33.181Z,20.70
2019-04-10T08:54:02.682Z,19.60
2019-04-10T08:56:32.233Z,19.50
2019-04-10T08:59:00.853Z,19.53
2019-04-10T09:01:29.674Z,19.07
2019-04-10T09:03:58.108Z,19.57
2019-04-10T09:06:27.232Z,19.07
2019-04-10T09:08:55.792Z,18.97
2019-04-10T09:11:28.108Z,18.33
2019-04-10T09:13:54.963Z,19.53
2019-04-10T09:16:24.618Z,18.17
2019-04-10T09:18:53.785Z,18.53
2019-04-10T09:21:29.253Z,16.90
2019-04-10T09:23:58.058Z,20.20
2019-04-10T09:26:26.868Z,17.65
2019-04-10T09:28:55.358Z,16.63
2019-04-10T09:31:23.956Z,16.42
2019-04-10T09:33:53.626Z,15.48
2019-04-10T09:36:22.313Z,15.88
2019-04-10T09:38:50.958Z,15.28
2019-04-10T09:41:19.513Z,15.98
2019-04-10T09:43:47.865Z,16.40
2019-04-10T09:46:16.471Z,15.25
2019-04-10T09:48:44.865Z,15.98
2019-04-10T09:51:16.806Z,14.75
2019-04-10T09:53:45.437Z,14.47
2019-04-10T09:56:14.037Z,14.58
2019-04-10T09:58:42.720Z,14.25
2019-04-10T10:01:15.061Z,15.15
2019-04-10T10:03:44.430Z,14.07
2019-04-10T10:06:23.497Z,14.93
2019-04-10T10:08:43.689Z,15.30
2019-04-10T10:11:12.212Z,15.60
2019-04-10T10:13:41.476Z,15.10
2019-04-10T10:16:10.536Z,17.60
2019-04-10T10:18:39.087Z,14.47
2019-04-10T10:21:08.246Z,14.03
2019-04-10T10:23:36.784Z,13.62
2019-04-10T10:26:05.820Z,14.03
2019-04-10T10:28:35.308Z,13.40
2019-04-10T10:31:04.088Z,16.67
2019-04-10T10:33:32.487Z,20.90
2019-04-10T10:36:01.150Z,13.43
2019-04-10T10:38:29.694Z,13.05
2019-04-10T10:40:59.105Z,13.60
2019-04-10T10:43:28.788Z,14.60
2019-04-10T10:45:57.313Z,13.70
2019-04-10T10:48:25.724Z,14.45
2019-04-10T10:50:54.275Z,12.88
2019-04-10T10:53:22.679Z,14.35
2019-04-10T10:55:51.149Z,13.58
2019-04-10T10:58:19.709Z,14.03
2019-04-10T11:00:49.953Z,12.30
2019-04-10T11:03:18.554Z,14.38
2019-04-10T11:05:47.034Z,14.10
2019-04-10T11:08:15.474Z,14.20
2019-04-10T11:10:48.021Z,14.07
2019-04-10T11:13:15.010Z,14.83
2019-04-10T11:15:45.861Z,13.28
2019-04-10T11:18:13.894Z,13.53
2019-04-10T11:20:42.291Z,13.03
2019-04-10T11:23:12.078Z,13.65
2019-04-10T11:25:40.760Z,13.13
2019-04-10T11:28:09.201Z,12.63
2019-04-10T11:30:37.604Z,13.85
2019-04-10T11:33:06.287Z,12.80
2019-04-10T11:35:35.002Z,13.83
2019-04-10T11:38:05.791Z,13.62
2019-04-10T11:40:34.335Z,13.00
2019-04-10T11:43:05.121Z,13.18
2019-04-10T11:45:41.343Z,13.00
2019-04-10T11:48:03.641Z,13.45
2019-04-10T11:50:32.690Z,13.05
2019-04-10T11:53:02.682Z,13.25
2019-04-10T11:55:35.439Z,12.37
2019-04-10T11:58:01.499Z,12.63
2019-04-10T12:00:45.388Z,13.18
2019-04-10T12:03:10.530Z,12.00
2019-04-10T12:05:41.390Z,12.82
2019-04-10T12:08:32.401Z,12.60
2019-04-10T12:13:10.947Z,13.35
2019-04-10T12:15:39.383Z,13.45
2019-04-10T12:18:08.650Z,13.43
2019-04-10T12:20:37.519Z,14.03
2019-04-10T12:23:06.146Z,14.50
2019-04-10T12:25:34.788Z,13.10
2019-04-10T12:28:03.364Z,14.38
2019-04-10T12:30:32.210Z,13.93
2019-04-10T12:33:01.180Z,14.38
2019-04-10T12:35:29.823Z,13.35
2019-04-10T12:38:02.853Z,14.47
2019-04-10T12:40:28.737Z,13.00
2019-04-10T12:42:57.284Z,13.18
2019-04-10T12:45:26.446Z,13.88
2019-04-10T12:47:54.944Z,14.20
2019-04-10T12:50:24.665Z,14.65
2019-04-10T12:52:53.171Z,15.10
2019-04-10T12:55:21.796Z,13.50
2019-04-10T12:57:51.038Z,15.18
2019-04-10T13:00:23.630Z,14.75
2019-04-10T13:02:52.482Z,14.03
2019-04-10T13:05:21.128Z,14.43
2019-04-10T13:07:49.770Z,13.78
2019-04-10T13:10:18.432Z,13.70
2019-04-10T13:12:47.264Z,13.88
2019-04-10T13:15:16.020Z,14.70
2019-04-10T13:17:44.563Z,14.25
2019-04-10T13:20:13.808Z,14.15
2019-04-10T13:22:42.365Z,13.90
2019-04-10T13:25:12.490Z,14.23
2019-04-10T13:27:41.141Z,15.18
2019-04-10T13:30:13.025Z,14.98
2019-04-10T13:32:42.412Z,13.98
2019-04-10T13:35:11.348Z,14.63
2019-04-10T13:37:39.955Z,13.72
2019-04-10T13:40:08.608Z,13.00
2019-04-10T13:42:37.322Z,13.60
2019-04-10T13:45:07.961Z,13.75
2019-04-10T13:47:36.627Z,13.43
2019-04-10T13:50:07.177Z,14.20
2019-04-10T13:52:38.416Z,13.93
2019-04-10T13:55:08.901Z,13.62
2019-04-10T13:57:39.194Z,13.88
2019-04-10T14:00:11.263Z,13.62
2019-04-10T14:02:39.814Z,12.78
2019-04-10T14:05:11.510Z,12.47
2019-04-10T14:07:40.248Z,12.25
2019-04-10T14:10:10.384Z,13.72
2019-04-10T14:12:39.071Z,13.98
2019-04-10T14:15:07.799Z,14.20
2019-04-10T14:17:37.504Z,13.30
2019-04-10T14:20:07.037Z,13.35
2019-04-10T14:22:37.940Z,13.83
2019-04-10T14:25:09.635Z,12.90
2019-04-10T14:27:38.630Z,14.10
2019-04-10T14:30:11.344Z,12.88
2019-04-10T14:32:40.090Z,13.65
2019-04-10T14:35:10.115Z,12.50
2019-04-10T14:37:38.865Z,12.43
2019-04-10T14:40:10.120Z,12.10
2019-04-10T14:42:38.690Z,12.93
2019-04-10T14:45:09.015Z,11.73
2019-04-10T14:47:37.545Z,13.07
2019-04-10T14:50:07.564Z,12.35
2019-04-10T14:52:37.153Z,11.57
2019-04-10T14:55:06.213Z,12.05
2019-04-10T14:57:34.950Z,12.55
2019-04-10T15:00:07.040Z,12.93
2019-04-10T15:02:35.527Z,12.60
2019-04-10T15:05:05.892Z,12.05
2019-04-10T15:07:35.212Z,12.10
2019-04-10T15:10:04.969Z,12.30
2019-04-10T15:12:33.394Z,11.48
2019-04-10T15:15:02.039Z,12.33
2019-04-10T15:17:30.808Z,12.43
2019-04-10T15:19:59.650Z,12.27
2019-04-10T15:22:29.221Z,12.10
2019-04-10T15:24:57.626Z,11.87
2019-04-10T15:27:27.089Z,14.20
2019-04-10T15:29:56.672Z,14.27
2019-04-10T15:32:25.377Z,12.93
2019-04-10T15:34:53.750Z,13.13
2019-04-10T15:37:22.882Z,13.93
2019-04-10T15:39:51.855Z,12.83
2019-04-10T15:42:20.395Z,12.40
2019-04-10T15:44:49.022Z,12.77
2019-04-10T15:47:22.189Z,12.40
2019-04-10T15:49:47.687Z,13.30
2019-04-10T15:52:16.089Z,12.82
2019-04-10T15:54:45.746Z,15.37
2019-04-10T15:57:14.306Z,13.00
2019-04-10T15:59:42.701Z,13.47
2019-04-10T16:02:11.326Z,15.00
2019-04-10T16:04:40.336Z,15.60
2019-04-10T16:07:09.822Z,16.40
2019-04-10T16:09:45.525Z,14.93
2019-04-10T16:12:16.566Z,15.17
2019-04-10T16:14:45.113Z,15.83
2019-04-10T16:17:33.580Z,16.00
2019-04-10T16:20:19.647Z,16.03
2019-04-10T16:22:56.683Z,16.07
2019-04-10T16:25:27.783Z,23.43
2019-04-10T16:27:57.727Z,15.73
2019-04-10T16:30:27.464Z,21.67
2019-04-10T16:32:55.870Z,19.43
2019-04-10T16:35:24.378Z,21.33
2019-04-10T16:37:52.794Z,19.33
2019-04-10T16:40:22.596Z,16.40
2019-04-10T16:42:51.135Z,15.93
2019-04-10T16:45:19.568Z,17.97
2019-04-10T16:47:48.295Z,15.23
2019-04-10T16:50:17.452Z,15.03
2019-04-10T16:52:45.922Z,14.83
2019-04-10T16:55:15.656Z,15.60
2019-04-10T16:57:45.283Z,14.53
2019-04-10T17:00:16.696Z,14.73
2019-04-10T17:02:44.567Z,13.73
2019-04-10T17:05:14.475Z,13.60
2019-04-10T17:07:43.273Z,13.60
2019-04-10T17:10:19.494Z,14.27
2019-04-10T17:12:44.235Z,15.17
2019-04-10T17:15:13.430Z,15.83
2019-04-10T17:17:42.282Z,14.90
2019-04-10T17:20:11.934Z,14.50
2019-04-10T17:22:44.434Z,15.37
2019-04-10T17:25:11.724Z,16.73
2019-04-10T17:27:40.226Z,16.33
2019-04-10T17:30:09.590Z,15.83
2019-04-10T17:32:38.468Z,15.00
2019-04-10T17:35:09.509Z,15.70
2019-04-10T17:37:38.626Z,15.30
2019-04-10T17:40:25.077Z,15.23
2019-04-10T17:42:44.376Z,16.33
2019-04-10T17:45:14.190Z,15.87
2019-04-10T17:47:42.954Z,19.67
2019-04-10T17:50:14.144Z,25.80
2019-04-10T17:52:43.064Z,26.47
2019-04-10T17:55:11.660Z,24.03
2019-04-10T17:57:44.164Z,20.37
2019-04-10T18:00:20.887Z,16.97
2019-04-10T18:02:50.735Z,17.23
2019-04-10T18:05:20.374Z,18.60
2019-04-10T18:07:49.224Z,18.53
2019-04-10T18:10:18.366Z,17.57
2019-04-10T18:12:48.027Z,16.30
2019-04-10T18:15:16.742Z,15.93
2019-04-10T18:17:45.202Z,16.47
2019-04-10T18:20:13.766Z,17.87
2019-04-10T18:22:42.836Z,17.33
2019-04-10T18:25:11.897Z,27.70
2019-04-10T18:27:41.446Z,38.83
2019-04-10T18:30:10.445Z,41.60
2019-04-10T18:32:40.032Z,31.20
2019-04-10T18:35:08.967Z,31.93
2019-04-10T18:37:37.417Z,21.17
2019-04-10T18:40:07.510Z,19.87
2019-04-10T18:42:37.320Z,18.03
2019-04-10T18:45:07.713Z,17.50
2019-04-10T18:47:38.815Z,18.07
2019-04-10T18:50:07.905Z,18.52
2019-04-10T18:52:37.345Z,18.00
2019-04-10T18:55:06.078Z,17.57
2019-04-10T18:57:35.664Z,17.90
2019-04-10T19:00:12.308Z,19.37
2019-04-10T19:02:54.252Z,19.60
2019-04-10T19:05:24.299Z,21.10
2019-04-10T19:07:52.784Z,21.10
2019-04-10T19:10:22.097Z,19.83
2019-04-10T19:12:50.817Z,19.73
2019-04-10T19:15:20.390Z,19.00
2019-04-10T19:17:48.957Z,17.27
2019-04-10T19:20:18.024Z,17.40
2019-04-10T19:22:46.571Z,16.57
2019-04-10T19:25:15.144Z,15.30
2019-04-10T19:27:44.490Z,17.70
2019-04-10T19:30:33.077Z,19.17
2019-04-10T19:33:01.821Z,18.67
2019-04-10T19:35:31.090Z,17.83
2019-04-10T19:37:59.524Z,17.90
2019-04-10T19:40:28.011Z,18.03
2019-04-10T19:42:57.698Z,18.00
2019-04-10T19:45:27.939Z,17.20
2019-04-10T19:47:57.037Z,18.83
2019-04-10T19:50:25.576Z,20.73
2019-04-10T19:52:55.037Z,26.17
2019-04-10T19:55:23.956Z,26.70
2019-04-10T19:57:53.323Z,22.57
2019-04-10T20:03:35.406Z,19.70
2019-04-10T20:06:03.910Z,18.47
2019-04-10T20:08:33.397Z,18.40
2019-04-10T20:11:02.436Z,18.80
2019-04-10T20:13:31.025Z,19.33
2019-04-10T20:16:00.685Z,20.13
2019-04-10T20:18:29.224Z,19.40
2019-04-10T20:20:57.737Z,20.83
2019-04-10T20:23:26.162Z,20.33
2019-04-10T20:25:54.942Z,19.43
2019-04-10T20:28:23.368Z,19.47
2019-04-10T20:30:54.725Z,17.53
2019-04-10T20:33:22.923Z,17.70
2019-04-10T20:35:51.349Z,17.53
2019-04-10T20:38:19.779Z,18.70
2019-04-10T20:40:48.191Z,17.70
2019-04-10T20:43:16.650Z,17.17
2019-04-10T20:45:45.482Z,17.60
2019-04-10T20:48:14.166Z,15.40
2019-04-10T20:50:43.699Z,14.03
2019-04-10T20:53:12.650Z,14.37
2019-04-10T20:55:41.901Z,12.70
2019-04-10T20:58:11.247Z,13.47
2019-04-10T21:00:41.056Z,12.67
2019-04-10T21:03:09.610Z,12.57
2019-04-10T21:05:38.265Z,13.80
2019-04-10T21:08:06.814Z,12.33
2019-04-10T21:10:35.208Z,12.73
2019-04-10T21:13:04.510Z,12.07
2019-04-10T21:15:33.416Z,11.77
2019-04-10T21:18:02.612Z,11.30
2019-04-10T21:20:32.342Z,10.67
2019-04-10T21:23:01.362Z,10.73
2019-04-10T21:25:30.932Z,11.73
2019-04-10T21:28:00.335Z,11.07
2019-04-10T21:30:36.331Z,10.20
2019-04-10T21:33:06.487Z,10.20
2019-04-10T21:35:37.132Z,9.90
2019-04-10T21:38:06.839Z,9.37
2019-04-10T21:40:35.320Z,9.00
2019-04-10T21:43:03.860Z,9.20
2019-04-10T21:45:34.880Z,9.23
2019-04-10T21:48:03.446Z,9.87
2019-04-10T21:50:31.959Z,10.00
2019-04-10T21:53:00.587Z,9.93
2019-04-10T21:55:29.204Z,9.93
2019-04-10T21:57:57.701Z,9.93
2019-04-10T22:00:45.144Z,9.70
2019-04-10T22:03:13.764Z,10.03
2019-04-10T22:05:44.546Z,10.00
2019-04-10T22:08:27.410Z,9.80
2019-04-10T22:10:57.311Z,8.97
2019-04-10T22:13:26.248Z,9.03
2019-04-10T22:15:55.444Z,9.43
2019-04-10T22:18:23.901Z,9.10
2019-04-10T22:20:52.472Z,8.80
2019-04-10T22:23:20.925Z,8.80
2019-04-10T22:25:50.167Z,7.97
2019-04-10T22:28:19.051Z,8.13
2019-04-10T22:30:48.432Z,7.60
2019-04-10T22:33:18.146Z,8.30
2019-04-10T22:35:46.756Z,8.40
2019-04-10T22:38:15.301Z,8.03
2019-04-10T22:40:44.144Z,7.23
2019-04-10T22:43:13.599Z,7.30
2019-04-10T22:45:42.403Z,7.73
2019-04-10T22:48:10.787Z,7.43
2019-04-10T22:50:39.253Z,7.40
2019-04-10T22:53:08.847Z,7.23
2019-04-10T22:55:37.395Z,7.13
2019-04-10T22:58:05.852Z,7.03
2019-04-10T23:00:34.256Z,7.10
2019-04-10T23:03:03.299Z,7.90
2019-04-10T23:05:32.377Z,7.20
2019-04-10T23:08:01.261Z,6.53
2019-04-10T23:10:29.867Z,7.00
2019-04-10T23:13:02.859Z,7.33
2019-04-10T23:15:28.532Z,6.50
2019-04-10T23:17:57.248Z,7.60
2019-04-10T23:20:26.039Z,7.10
2019-04-10T23:22:54.830Z,7.57
2019-04-10T23:25:24.569Z,7.00
2019-04-10T23:27:55.203Z,6.57
2019-04-10T23:30:24.510Z,7.50
2019-04-10T23:32:53.532Z,7.47
2019-04-10T23:35:22.188Z,7.30
2019-04-10T23:37:51.092Z,7.60
2019-04-10T23:40:20.916Z,6.73
2019-04-10T23:43:01.310Z,7.17
2019-04-10T23:45:19.860Z,6.90
2019-04-10T23:47:48.666Z,6.70
2019-04-10T23:50:18.442Z,6.77
2019-04-10T23:52:47.875Z,6.77
2019-04-10T23:55:17.643Z,6.43
2019-04-10T23:57:46.430Z,6.60
